sensor_id;sensor_type;location;lat;lon;timestamp;P1;durP1;ratioP1;P2;durP2;ratioP2
3911;SDS011;1971;51.778;10.330;2023-11-19T00:01:41;0.67;;;0.67;;
3911;SDS011;1971;51.778;10.330;2023-11-19T00:04:14;0.97;;;0.97;;
3911;SDS011;1971;51.778;10.330;2023-11-19T00:06:44;1.13;;;1.07;;
3911;SDS011;1971;51.778;10.330;2023-11-19T00:09:14;0.93;;;0.83;;
3911;SDS011;1971;51.778;10.330;2023-11-19T00:11:44;0.70;;;0.70;;
3911;SDS011;1971;51.778;10.330;2023-11-19T00:14:17;0.83;;;0.83;;
3911;SDS011;1971;51.778;10.330;2023-11-19T00:16:48;0.60;;;0.60;;
3911;SDS011;1971;51.778;10.330;2023-11-19T00:19:21;0.90;;;0.90;;
3911;SDS011;1971;51.778;10.330;2023-11-19T00:21:51;1.00;;;0.90;;
3911;SDS011;1971;51.778;10.330;2023-11-19T00:24:21;0.80;;;0.80;;
3911;SDS011;1971;51.778;10.330;2023-11-19T00:26:51;0.80;;;0.80;;
3911;SDS011;1971;51.778;10.330;2023-11-19T00:29:21;1.00;;;1.00;;
3911;SDS011;1971;51.778;10.330;2023-11-19T00:31:52;1.03;;;1.03;;
3911;SDS011;1971;51.778;10.330;2023-11-19T00:34:25;1.30;;;1.20;;
3911;SDS011;1971;51.778;10.330;2023-11-19T00:36:55;1.03;;;1.03;;
3911;SDS011;1971;51.778;10.330;2023-11-19T00:39:25;1.33;;;1.23;;
3911;SDS011;1971;51.778;10.330;2023-11-19T00:41:56;1.20;;;1.10;;
3911;SDS011;1971;51.778;10.330;2023-11-19T00:44:26;1.73;;;1.63;;
3911;SDS011;1971;51.778;10.330;2023-11-19T00:46:56;2.30;;;1.13;;
3911;SDS011;1971;51.778;10.330;2023-11-19T00:49:30;1.73;;;1.63;;
3911;SDS011;1971;51.778;10.330;2023-11-19T00:52:01;2.40;;;1.57;;
3911;SDS011;1971;51.778;10.330;2023-11-19T00:54:33;8.50;;;2.77;;
3911;SDS011;1971;51.778;10.330;2023-11-19T00:57:03;21.43;;;3.70;;
3911;SDS011;1971;51.778;10.330;2023-11-19T00:59:33;45.80;;;7.13;;
3911;SDS011;1971;51.778;10.330;2023-11-19T01:02:04;37.03;;;6.13;;
3911;SDS011;1971;51.778;10.330;2023-11-19T01:04:37;120.70;;;16.30;;
3911;SDS011;1971;51.778;10.330;2023-11-19T01:07:07;54.17;;;7.80;;
3911;SDS011;1971;51.778;10.330;2023-11-19T01:09:41;71.00;;;11.23;;
3911;SDS011;1971;51.778;10.330;2023-11-19T01:12:12;114.00;;;14.27;;
3911;SDS011;1971;51.778;10.330;2023-11-19T01:14:42;45.73;;;7.33;;
3911;SDS011;1971;51.778;10.330;2023-11-19T01:17:12;21.43;;;3.97;;
3911;SDS011;1971;51.778;10.330;2023-11-19T01:19:46;81.67;;;11.00;;
3911;SDS011;1971;51.778;10.330;2023-11-19T01:22:17;34.33;;;6.00;;
3911;SDS011;1971;51.778;10.330;2023-11-19T01:24:47;125.23;;;16.53;;
3911;SDS011;1971;51.778;10.330;2023-11-19T01:27:18;16.47;;;3.83;;
3911;SDS011;1971;51.778;10.330;2023-11-19T01:29:50;3.60;;;1.83;;
3911;SDS011;1971;51.778;10.330;2023-11-19T01:32:21;1.60;;;1.50;;
3911;SDS011;1971;51.778;10.330;2023-11-19T01:34:54;1.87;;;1.00;;
3911;SDS011;1971;51.778;10.330;2023-11-19T01:37:24;0.93;;;0.93;;
3911;SDS011;1971;51.778;10.330;2023-11-19T01:39:54;1.00;;;1.00;;
3911;SDS011;1971;51.778;10.330;2023-11-19T01:42:25;1.13;;;1.13;;
3911;SDS011;1971;51.778;10.330;2023-11-19T01:44:56;1.20;;;1.10;;
3911;SDS011;1971;51.778;10.330;2023-11-19T01:47:28;0.80;;;0.80;;
3911;SDS011;1971;51.778;10.330;2023-11-19T01:50:02;0.70;;;0.70;;
3911;SDS011;1971;51.778;10.330;2023-11-19T01:52:36;4.10;;;1.13;;
3911;SDS011;1971;51.778;10.330;2023-11-19T01:55:06;0.70;;;0.70;;
3911;SDS011;1971;51.778;10.330;2023-11-19T01:57:39;0.80;;;0.73;;
3911;SDS011;1971;51.778;10.330;2023-11-19T02:00:10;2.23;;;0.90;;
3911;SDS011;1971;51.778;10.330;2023-11-19T02:02:43;1.37;;;0.93;;
3911;SDS011;1971;51.778;10.330;2023-11-19T02:05:16;11.33;;;2.80;;
3911;SDS011;1971;51.778;10.330;2023-11-19T02:07:48;141.00;;;18.40;;
3911;SDS011;1971;51.778;10.330;2023-11-19T02:10:18;380.90;;;38.67;;
3911;SDS011;1971;51.778;10.330;2023-11-19T02:12:51;283.37;;;32.87;;
3911;SDS011;1971;51.778;10.330;2023-11-19T02:15:32;194.53;;;22.47;;
3911;SDS011;1971;51.778;10.330;2023-11-19T02:20:51;51.90;;;9.10;;
3911;SDS011;1971;51.778;10.330;2023-11-19T02:23:22;8.90;;;1.93;;
3911;SDS011;1971;51.778;10.330;2023-11-19T02:25:57;1.53;;;0.90;;
3911;SDS011;1971;51.778;10.330;2023-11-19T02:28:35;1.10;;;0.70;;
3911;SDS011;1971;51.778;10.330;2023-11-19T02:31:07;2.80;;;0.80;;
3911;SDS011;1971;51.778;10.330;2023-11-19T02:33:37;0.60;;;0.60;;
3911;SDS011;1971;51.778;10.330;2023-11-19T02:36:08;0.50;;;0.50;;
3911;SDS011;1971;51.778;10.330;2023-11-19T02:38:39;0.50;;;0.50;;
3911;SDS011;1971;51.778;10.330;2023-11-19T02:41:10;0.60;;;0.50;;
3911;SDS011;1971;51.778;10.330;2023-11-19T02:43:43;1.33;;;0.70;;
3911;SDS011;1971;51.778;10.330;2023-11-19T02:46:15;0.90;;;0.90;;
3911;SDS011;1971;51.778;10.330;2023-11-19T02:48:46;5.83;;;1.30;;
3911;SDS011;1971;51.778;10.330;2023-11-19T02:51:16;16.57;;;2.70;;
3911;SDS011;1971;51.778;10.330;2023-11-19T02:53:46;129.90;;;15.07;;
3911;SDS011;1971;51.778;10.330;2023-11-19T02:56:17;42.03;;;6.00;;
3911;SDS011;1971;51.778;10.330;2023-11-19T02:58:55;84.87;;;8.40;;
3911;SDS011;1971;51.778;10.330;2023-11-19T03:01:26;229.63;;;22.53;;
3911;SDS011;1971;51.778;10.330;2023-11-19T03:04:01;235.07;;;22.47;;
3911;SDS011;1971;51.778;10.330;2023-11-19T03:06:32;244.47;;;21.63;;
3911;SDS011;1971;51.778;10.330;2023-11-19T03:09:03;361.23;;;32.40;;
3911;SDS011;1971;51.778;10.330;2023-11-19T03:11:38;455.77;;;34.33;;
3911;SDS011;1971;51.778;10.330;2023-11-19T03:14:12;487.20;;;34.63;;
3911;SDS011;1971;51.778;10.330;2023-11-19T03:16:44;606.50;;;42.13;;
3911;SDS011;1971;51.778;10.330;2023-11-19T03:19:15;534.17;;;39.77;;
3911;SDS011;1971;51.778;10.330;2023-11-19T03:21:49;426.77;;;36.20;;
3911;SDS011;1971;51.778;10.330;2023-11-19T03:24:19;410.20;;;35.37;;
3911;SDS011;1971;51.778;10.330;2023-11-19T03:26:51;207.63;;;19.43;;
3911;SDS011;1971;51.778;10.330;2023-11-19T03:29:24;607.30;;;44.90;;
3911;SDS011;1971;51.778;10.330;2023-11-19T03:31:55;528.67;;;35.93;;
3911;SDS011;1971;51.778;10.330;2023-11-19T03:34:25;445.90;;;30.03;;
3911;SDS011;1971;51.778;10.330;2023-11-19T03:36:56;588.10;;;41.27;;
3911;SDS011;1971;51.778;10.330;2023-11-19T03:39:26;636.60;;;43.47;;
3911;SDS011;1971;51.778;10.330;2023-11-19T03:41:59;271.97;;;19.67;;
3911;SDS011;1971;51.778;10.330;2023-11-19T03:44:32;522.03;;;37.50;;
3911;SDS011;1971;51.778;10.330;2023-11-19T03:47:03;374.13;;;26.43;;
3911;SDS011;1971;51.778;10.330;2023-11-19T03:49:33;363.60;;;24.37;;
3911;SDS011;1971;51.778;10.330;2023-11-19T03:52:04;435.27;;;29.87;;
3911;SDS011;1971;51.778;10.330;2023-11-19T03:54:46;377.63;;;28.13;;
3911;SDS011;1971;51.778;10.330;2023-11-19T03:57:17;535.00;;;36.47;;
3911;SDS011;1971;51.778;10.330;2023-11-19T03:59:49;635.50;;;45.37;;
3911;SDS011;1971;51.778;10.330;2023-11-19T04:02:20;712.93;;;50.47;;
3911;SDS011;1971;51.778;10.330;2023-11-19T04:04:54;583.93;;;43.53;;
3911;SDS011;1971;51.778;10.330;2023-11-19T04:07:25;493.37;;;36.77;;
3911;SDS011;1971;51.778;10.330;2023-11-19T04:09:55;390.47;;;30.67;;
3911;SDS011;1971;51.778;10.330;2023-11-19T04:12:25;490.17;;;36.00;;
3911;SDS011;1971;51.778;10.330;2023-11-19T04:14:58;386.37;;;35.83;;
3911;SDS011;1971;51.778;10.330;2023-11-19T04:17:28;502.57;;;37.53;;
3911;SDS011;1971;51.778;10.330;2023-11-19T04:19:59;567.27;;;43.07;;
3911;SDS011;1971;51.778;10.330;2023-11-19T04:22:30;379.40;;;27.83;;
3911;SDS011;1971;51.778;10.330;2023-11-19T04:25:01;378.67;;;26.93;;
3911;SDS011;1971;51.778;10.330;2023-11-19T04:27:32;535.03;;;31.27;;
3911;SDS011;1971;51.778;10.330;2023-11-19T04:30:06;557.57;;;39.37;;
3911;SDS011;1971;51.778;10.330;2023-11-19T04:32:38;361.60;;;26.70;;
3911;SDS011;1971;51.778;10.330;2023-11-19T04:35:08;258.43;;;18.50;;
3911;SDS011;1971;51.778;10.330;2023-11-19T04:37:38;329.23;;;27.30;;
3911;SDS011;1971;51.778;10.330;2023-11-19T04:40:09;326.20;;;24.03;;
3911;SDS011;1971;51.778;10.330;2023-11-19T04:42:40;243.27;;;19.10;;
3911;SDS011;1971;51.778;10.330;2023-11-19T04:45:13;264.17;;;20.83;;
3911;SDS011;1971;51.778;10.330;2023-11-19T04:47:43;309.73;;;22.03;;
3911;SDS011;1971;51.778;10.330;2023-11-19T04:50:13;305.23;;;21.13;;
3911;SDS011;1971;51.778;10.330;2023-11-19T04:52:44;181.53;;;14.93;;
3911;SDS011;1971;51.778;10.330;2023-11-19T04:55:15;125.53;;;9.40;;
3911;SDS011;1971;51.778;10.330;2023-11-19T04:57:45;110.67;;;9.33;;
3911;SDS011;1971;51.778;10.330;2023-11-19T05:00:18;192.27;;;14.50;;
3911;SDS011;1971;51.778;10.330;2023-11-19T05:02:49;288.43;;;21.37;;
3911;SDS011;1971;51.778;10.330;2023-11-19T05:05:19;344.93;;;23.33;;
3911;SDS011;1971;51.778;10.330;2023-11-19T05:07:50;318.67;;;21.10;;
3911;SDS011;1971;51.778;10.330;2023-11-19T05:10:21;366.57;;;27.10;;
3911;SDS011;1971;51.778;10.330;2023-11-19T05:12:51;255.17;;;17.90;;
3911;SDS011;1971;51.778;10.330;2023-11-19T05:15:25;184.03;;;13.37;;
3911;SDS011;1971;51.778;10.330;2023-11-19T05:17:55;94.70;;;8.03;;
3911;SDS011;1971;51.778;10.330;2023-11-19T05:20:26;176.67;;;13.43;;
3911;SDS011;1971;51.778;10.330;2023-11-19T05:22:56;454.53;;;30.87;;
3911;SDS011;1971;51.778;10.330;2023-11-19T05:25:26;243.30;;;17.23;;
3911;SDS011;1971;51.778;10.330;2023-11-19T05:27:57;300.23;;;24.17;;
3911;SDS011;1971;51.778;10.330;2023-11-19T05:30:30;347.70;;;30.40;;
3911;SDS011;1971;51.778;10.330;2023-11-19T05:33:00;254.77;;;22.53;;
3911;SDS011;1971;51.778;10.330;2023-11-19T05:35:31;225.83;;;17.80;;
3911;SDS011;1971;51.778;10.330;2023-11-19T05:38:01;337.27;;;25.83;;
3911;SDS011;1971;51.778;10.330;2023-11-19T05:40:32;530.67;;;38.53;;
3911;SDS011;1971;51.778;10.330;2023-11-19T05:43:05;574.97;;;40.13;;
3911;SDS011;1971;51.778;10.330;2023-11-19T05:45:38;588.10;;;46.50;;
3911;SDS011;1971;51.778;10.330;2023-11-19T05:48:08;628.37;;;48.17;;
3911;SDS011;1971;51.778;10.330;2023-11-19T05:50:39;193.07;;;17.00;;
3911;SDS011;1971;51.778;10.330;2023-11-19T05:53:09;705.13;;;51.00;;
3911;SDS011;1971;51.778;10.330;2023-11-19T05:55:41;361.67;;;34.23;;
3911;SDS011;1971;51.778;10.330;2023-11-19T05:58:23;276.67;;;28.73;;
3911;SDS011;1971;51.778;10.330;2023-11-19T06:00:58;166.03;;;16.90;;
3911;SDS011;1971;51.778;10.330;2023-11-19T06:03:30;451.77;;;42.67;;
3911;SDS011;1971;51.778;10.330;2023-11-19T06:06:00;396.53;;;34.37;;
3911;SDS011;1971;51.778;10.330;2023-11-19T06:08:31;211.13;;;19.73;;
3911;SDS011;1971;51.778;10.330;2023-11-19T06:11:02;772.87;;;57.60;;
3911;SDS011;1971;51.778;10.330;2023-11-19T06:13:32;520.00;;;39.23;;
3911;SDS011;1971;51.778;10.330;2023-11-19T06:16:06;642.27;;;51.67;;
3911;SDS011;1971;51.778;10.330;2023-11-19T06:18:37;250.63;;;20.13;;
3911;SDS011;1971;51.778;10.330;2023-11-19T06:21:08;375.57;;;26.83;;
3911;SDS011;1971;51.778;10.330;2023-11-19T06:23:38;487.10;;;34.53;;
3911;SDS011;1971;51.778;10.330;2023-11-19T06:26:09;261.30;;;22.90;;
3911;SDS011;1971;51.778;10.330;2023-11-19T06:28:39;369.23;;;29.77;;
3911;SDS011;1971;51.778;10.330;2023-11-19T06:31:12;347.00;;;30.43;;
3911;SDS011;1971;51.778;10.330;2023-11-19T06:33:42;466.23;;;34.63;;
3911;SDS011;1971;51.778;10.330;2023-11-19T06:36:14;406.47;;;33.63;;
3911;SDS011;1971;51.778;10.330;2023-11-19T06:38:44;514.20;;;39.10;;
3911;SDS011;1971;51.778;10.330;2023-11-19T06:41:15;603.80;;;49.07;;
3911;SDS011;1971;51.778;10.330;2023-11-19T06:43:45;614.47;;;47.40;;
3911;SDS011;1971;51.778;10.330;2023-11-19T06:46:18;539.43;;;49.97;;
3911;SDS011;1971;51.778;10.330;2023-11-19T06:48:49;473.93;;;43.73;;
3911;SDS011;1971;51.778;10.330;2023-11-19T06:51:19;325.20;;;33.60;;
3911;SDS011;1971;51.778;10.330;2023-11-19T06:53:51;181.07;;;24.73;;
3911;SDS011;1971;51.778;10.330;2023-11-19T06:56:23;238.37;;;27.87;;
3911;SDS011;1971;51.778;10.330;2023-11-19T06:58:53;277.03;;;34.97;;
3911;SDS011;1971;51.778;10.330;2023-11-19T07:01:26;661.37;;;60.17;;
3911;SDS011;1971;51.778;10.330;2023-11-19T07:03:56;647.67;;;57.23;;
3911;SDS011;1971;51.778;10.330;2023-11-19T07:06:27;28.83;;;8.50;;
3911;SDS011;1971;51.778;10.330;2023-11-19T07:09:01;201.07;;;22.37;;
3911;SDS011;1971;51.778;10.330;2023-11-19T07:11:37;86.13;;;14.97;;
3911;SDS011;1971;51.778;10.330;2023-11-19T07:14:08;52.23;;;11.10;;
3911;SDS011;1971;51.778;10.330;2023-11-19T07:16:40;17.20;;;7.40;;
3911;SDS011;1971;51.778;10.330;2023-11-19T07:19:10;28.63;;;7.87;;
3911;SDS011;1971;51.778;10.330;2023-11-19T07:21:41;13.13;;;6.57;;
3911;SDS011;1971;51.778;10.330;2023-11-19T07:24:13;9.33;;;6.07;;
3911;SDS011;1971;51.778;10.330;2023-11-19T07:26:43;116.70;;;17.50;;
3911;SDS011;1971;51.778;10.330;2023-11-19T07:29:15;61.77;;;12.47;;
3911;SDS011;1971;51.778;10.330;2023-11-19T07:31:50;104.07;;;16.63;;
3911;SDS011;1971;51.778;10.330;2023-11-19T07:34:21;10.53;;;5.20;;
3911;SDS011;1971;51.778;10.330;2023-11-19T07:36:51;12.50;;;5.83;;
3911;SDS011;1971;51.778;10.330;2023-11-19T07:39:24;35.50;;;9.00;;
3911;SDS011;1971;51.778;10.330;2023-11-19T07:41:54;13.30;;;6.23;;
3911;SDS011;1971;51.778;10.330;2023-11-19T07:44:25;10.23;;;6.27;;
3911;SDS011;1971;51.778;10.330;2023-11-19T07:46:58;11.30;;;5.87;;
3911;SDS011;1971;51.778;10.330;2023-11-19T07:49:28;23.20;;;7.77;;
3911;SDS011;1971;51.778;10.330;2023-11-19T07:51:58;8.37;;;5.20;;
3911;SDS011;1971;51.778;10.330;2023-11-19T07:54:29;11.23;;;5.87;;
3911;SDS011;1971;51.778;10.330;2023-11-19T07:57:00;12.33;;;6.20;;
3911;SDS011;1971;51.778;10.330;2023-11-19T07:59:30;14.73;;;6.30;;
3911;SDS011;1971;51.778;10.330;2023-11-19T08:02:03;12.37;;;5.47;;
3911;SDS011;1971;51.778;10.330;2023-11-19T08:04:33;9.27;;;5.20;;
3911;SDS011;1971;51.778;10.330;2023-11-19T08:07:07;8.97;;;3.63;;
3911;SDS011;1971;51.778;10.330;2023-11-19T08:09:37;9.70;;;5.30;;
3911;SDS011;1971;51.778;10.330;2023-11-19T08:12:07;11.30;;;5.60;;
3911;SDS011;1971;51.778;10.330;2023-11-19T08:14:37;8.60;;;5.73;;
3911;SDS011;1971;51.778;10.330;2023-11-19T08:17:10;10.67;;;5.87;;
3911;SDS011;1971;51.778;10.330;2023-11-19T08:19:40;9.53;;;6.00;;
3911;SDS011;1971;51.778;10.330;2023-11-19T08:22:10;14.63;;;5.63;;
3911;SDS011;1971;51.778;10.330;2023-11-19T08:24:40;6.50;;;3.57;;
3911;SDS011;1971;51.778;10.330;2023-11-19T08:27:10;12.70;;;5.83;;
3911;SDS011;1971;51.778;10.330;2023-11-19T08:29:41;13.20;;;6.47;;
3911;SDS011;1971;51.778;10.330;2023-11-19T08:32:15;12.67;;;5.77;;
3911;SDS011;1971;51.778;10.330;2023-11-19T08:34:45;12.90;;;6.23;;
3911;SDS011;1971;51.778;10.330;2023-11-19T08:37:15;39.63;;;8.90;;
3911;SDS011;1971;51.778;10.330;2023-11-19T08:39:48;50.17;;;10.73;;
3911;SDS011;1971;51.778;10.330;2023-11-19T08:42:19;13.20;;;6.00;;
3911;SDS011;1971;51.778;10.330;2023-11-19T08:44:49;22.33;;;6.10;;
3911;SDS011;1971;51.778;10.330;2023-11-19T08:47:23;13.60;;;5.40;;
3911;SDS011;1971;51.778;10.330;2023-11-19T08:49:54;13.93;;;6.40;;
3911;SDS011;1971;51.778;10.330;2023-11-19T08:52:27;14.33;;;6.33;;
3911;SDS011;1971;51.778;10.330;2023-11-19T08:55:00;10.77;;;4.50;;
3911;SDS011;1971;51.778;10.330;2023-11-19T08:57:32;15.00;;;7.83;;
3911;SDS011;1971;51.778;10.330;2023-11-19T09:00:02;16.20;;;6.30;;
3911;SDS011;1971;51.778;10.330;2023-11-19T09:02:37;14.67;;;6.30;;
3911;SDS011;1971;51.778;10.330;2023-11-19T09:05:07;10.73;;;5.53;;
3911;SDS011;1971;51.778;10.330;2023-11-19T09:07:39;11.43;;;6.80;;
3911;SDS011;1971;51.778;10.330;2023-11-19T09:10:10;87.83;;;13.57;;
3911;SDS011;1971;51.778;10.330;2023-11-19T09:12:40;16.17;;;7.47;;
3911;SDS011;1971;51.778;10.330;2023-11-19T09:15:10;9.73;;;6.40;;
3911;SDS011;1971;51.778;10.330;2023-11-19T09:17:43;12.40;;;6.23;;
3911;SDS011;1971;51.778;10.330;2023-11-19T09:20:13;14.57;;;6.47;;
3911;SDS011;1971;51.778;10.330;2023-11-19T09:22:44;11.60;;;6.63;;
3911;SDS011;1971;51.778;10.330;2023-11-19T09:25:15;59.40;;;11.30;;
3911;SDS011;1971;51.778;10.330;2023-11-19T09:27:46;422.40;;;38.10;;
3911;SDS011;1971;51.778;10.330;2023-11-19T09:30:19;184.93;;;21.40;;
3911;SDS011;1971;51.778;10.330;2023-11-19T09:32:52;22.87;;;6.67;;
3911;SDS011;1971;51.778;10.330;2023-11-19T09:35:23;9.70;;;6.27;;
3911;SDS011;1971;51.778;10.330;2023-11-19T09:37:53;17.43;;;6.07;;
3911;SDS011;1971;51.778;10.330;2023-11-19T09:40:23;17.73;;;6.97;;
3911;SDS011;1971;51.778;10.330;2023-11-19T09:42:54;15.23;;;6.47;;
3911;SDS011;1971;51.778;10.330;2023-11-19T09:45:26;12.50;;;6.27;;
3911;SDS011;1971;51.778;10.330;2023-11-19T09:48:01;13.60;;;6.00;;
3911;SDS011;1971;51.778;10.330;2023-11-19T09:50:32;15.97;;;6.57;;
3911;SDS011;1971;51.778;10.330;2023-11-19T09:53:02;17.13;;;7.60;;
3911;SDS011;1971;51.778;10.330;2023-11-19T09:55:33;14.03;;;6.77;;
3911;SDS011;1971;51.778;10.330;2023-11-19T09:58:03;11.90;;;6.10;;
3911;SDS011;1971;51.778;10.330;2023-11-19T10:00:33;15.40;;;7.37;;
3911;SDS011;1971;51.778;10.330;2023-11-19T10:03:06;17.87;;;7.50;;
3911;SDS011;1971;51.778;10.330;2023-11-19T10:05:40;12.97;;;6.30;;
3911;SDS011;1971;51.778;10.330;2023-11-19T10:08:10;16.17;;;7.30;;
3911;SDS011;1971;51.778;10.330;2023-11-19T10:10:40;15.80;;;6.83;;
3911;SDS011;1971;51.778;10.330;2023-11-19T10:13:11;16.83;;;6.53;;
3911;SDS011;1971;51.778;10.330;2023-11-19T10:15:41;17.97;;;7.87;;
3911;SDS011;1971;51.778;10.330;2023-11-19T10:18:16;16.13;;;7.83;;
3911;SDS011;1971;51.778;10.330;2023-11-19T10:20:47;16.53;;;7.03;;
3911;SDS011;1971;51.778;10.330;2023-11-19T10:23:17;14.00;;;7.10;;
3911;SDS011;1971;51.778;10.330;2023-11-19T10:25:47;15.37;;;7.97;;
3911;SDS011;1971;51.778;10.330;2023-11-19T10:28:17;23.60;;;7.57;;
3911;SDS011;1971;51.778;10.330;2023-11-19T10:30:48;16.50;;;6.77;;
3911;SDS011;1971;51.778;10.330;2023-11-19T10:33:25;20.50;;;8.17;;
3911;SDS011;1971;51.778;10.330;2023-11-19T10:35:59;23.17;;;7.30;;
3911;SDS011;1971;51.778;10.330;2023-11-19T10:38:29;18.77;;;7.30;;
3911;SDS011;1971;51.778;10.330;2023-11-19T10:40:59;13.30;;;7.17;;
3911;SDS011;1971;51.778;10.330;2023-11-19T10:43:31;14.20;;;7.00;;
3911;SDS011;1971;51.778;10.330;2023-11-19T10:46:12;12.97;;;6.40;;
3911;SDS011;1971;51.778;10.330;2023-11-19T10:48:50;16.23;;;8.33;;
3911;SDS011;1971;51.778;10.330;2023-11-19T10:51:20;14.30;;;7.20;;
3911;SDS011;1971;51.778;10.330;2023-11-19T10:53:50;13.13;;;6.20;;
3911;SDS011;1971;51.778;10.330;2023-11-19T10:56:23;15.40;;;7.30;;
3911;SDS011;1971;51.778;10.330;2023-11-19T10:58:59;17.03;;;6.70;;
3911;SDS011;1971;51.778;10.330;2023-11-19T11:01:48;19.40;;;8.00;;
3911;SDS011;1971;51.778;10.330;2023-11-19T11:04:25;19.03;;;7.00;;
3911;SDS011;1971;51.778;10.330;2023-11-19T11:06:58;14.47;;;6.30;;
3911;SDS011;1971;51.778;10.330;2023-11-19T11:09:30;15.67;;;7.00;;
3911;SDS011;1971;51.778;10.330;2023-11-19T11:12:02;16.27;;;7.47;;
3911;SDS011;1971;51.778;10.330;2023-11-19T11:14:34;11.87;;;5.57;;
3911;SDS011;1971;51.778;10.330;2023-11-19T11:17:07;13.60;;;6.80;;
3911;SDS011;1971;51.778;10.330;2023-11-19T11:19:44;19.27;;;7.50;;
3911;SDS011;1971;51.778;10.330;2023-11-19T11:22:14;17.10;;;6.67;;
3911;SDS011;1971;51.778;10.330;2023-11-19T11:27:54;11.50;;;6.00;;
3911;SDS011;1971;51.778;10.330;2023-11-19T11:30:39;9.60;;;6.23;;
3911;SDS011;1971;51.778;10.330;2023-11-19T11:33:29;17.90;;;7.43;;
3911;SDS011;1971;51.778;10.330;2023-11-19T11:36:15;12.37;;;6.27;;
3911;SDS011;1971;51.778;10.330;2023-11-19T11:38:49;16.03;;;6.30;;
3911;SDS011;1971;51.778;10.330;2023-11-19T11:41:20;12.77;;;6.90;;
3911;SDS011;1971;51.778;10.330;2023-11-19T11:43:55;11.13;;;6.70;;
3911;SDS011;1971;51.778;10.330;2023-11-19T11:49:25;14.40;;;6.10;;
3911;SDS011;1971;51.778;10.330;2023-11-19T11:52:05;16.07;;;7.20;;
3911;SDS011;1971;51.778;10.330;2023-11-19T11:54:40;20.07;;;7.20;;
3911;SDS011;1971;51.778;10.330;2023-11-19T11:57:11;17.03;;;6.90;;
3911;SDS011;1971;51.778;10.330;2023-11-19T11:59:46;13.73;;;6.40;;
3911;SDS011;1971;51.778;10.330;2023-11-19T12:02:17;8.00;;;5.33;;
3911;SDS011;1971;51.778;10.330;2023-11-19T12:04:49;13.20;;;6.27;;
3911;SDS011;1971;51.778;10.330;2023-11-19T12:07:23;16.47;;;7.70;;
3911;SDS011;1971;51.778;10.330;2023-11-19T12:10:05;15.90;;;6.80;;
3911;SDS011;1971;51.778;10.330;2023-11-19T12:12:39;13.57;;;6.47;;
3911;SDS011;1971;51.778;10.330;2023-11-19T12:15:10;11.40;;;5.77;;
3911;SDS011;1971;51.778;10.330;2023-11-19T12:17:50;11.00;;;6.03;;
3911;SDS011;1971;51.778;10.330;2023-11-19T12:20:21;11.53;;;6.20;;
3911;SDS011;1971;51.778;10.330;2023-11-19T12:22:58;7.53;;;5.67;;
3911;SDS011;1971;51.778;10.330;2023-11-19T12:25:36;14.30;;;7.43;;
3911;SDS011;1971;51.778;10.330;2023-11-19T12:28:11;11.00;;;6.20;;
3911;SDS011;1971;51.778;10.330;2023-11-19T12:30:43;11.80;;;6.20;;
3911;SDS011;1971;51.778;10.330;2023-11-19T12:33:14;12.90;;;6.20;;
3911;SDS011;1971;51.778;10.330;2023-11-19T12:35:47;15.07;;;6.93;;
3911;SDS011;1971;51.778;10.330;2023-11-19T12:38:21;11.77;;;5.40;;
3911;SDS011;1971;51.778;10.330;2023-11-19T12:41:04;16.63;;;7.23;;
3911;SDS011;1971;51.778;10.330;2023-11-19T12:43:38;11.20;;;5.60;;
3911;SDS011;1971;51.778;10.330;2023-11-19T12:46:18;11.63;;;6.03;;
3911;SDS011;1971;51.778;10.330;2023-11-19T12:48:50;18.20;;;6.93;;
3911;SDS011;1971;51.778;10.330;2023-11-19T12:51:20;15.93;;;6.17;;
3911;SDS011;1971;51.778;10.330;2023-11-19T12:53:53;16.70;;;6.00;;
3911;SDS011;1971;51.778;10.330;2023-11-19T12:56:25;19.00;;;7.30;;
3911;SDS011;1971;51.778;10.330;2023-11-19T12:58:56;11.27;;;5.80;;
3911;SDS011;1971;51.778;10.330;2023-11-19T13:01:27;14.07;;;6.07;;
3911;SDS011;1971;51.778;10.330;2023-11-19T13:03:58;12.73;;;6.13;;
3911;SDS011;1971;51.778;10.330;2023-11-19T13:06:45;14.20;;;6.33;;
3911;SDS011;1971;51.778;10.330;2023-11-19T13:09:25;9.43;;;5.10;;
3911;SDS011;1971;51.778;10.330;2023-11-19T13:11:56;12.93;;;5.80;;
3911;SDS011;1971;51.778;10.330;2023-11-19T13:14:36;15.03;;;6.27;;
3911;SDS011;1971;51.778;10.330;2023-11-19T13:17:09;15.60;;;6.50;;
3911;SDS011;1971;51.778;10.330;2023-11-19T13:19:43;12.73;;;4.80;;
3911;SDS011;1971;51.778;10.330;2023-11-19T13:22:13;10.30;;;4.60;;
3911;SDS011;1971;51.778;10.330;2023-11-19T13:24:46;12.97;;;4.50;;
3911;SDS011;1971;51.778;10.330;2023-11-19T13:27:16;12.30;;;4.43;;
3911;SDS011;1971;51.778;10.330;2023-11-19T13:29:46;14.27;;;5.07;;
3911;SDS011;1971;51.778;10.330;2023-11-19T13:32:16;14.43;;;4.77;;
3911;SDS011;1971;51.778;10.330;2023-11-19T13:34:47;9.67;;;4.20;;
3911;SDS011;1971;51.778;10.330;2023-11-19T13:37:17;9.73;;;4.27;;
3911;SDS011;1971;51.778;10.330;2023-11-19T13:39:50;13.13;;;4.20;;
3911;SDS011;1971;51.778;10.330;2023-11-19T13:42:21;12.60;;;4.03;;
3911;SDS011;1971;51.778;10.330;2023-11-19T13:44:51;8.30;;;3.70;;
3911;SDS011;1971;51.778;10.330;2023-11-19T13:47:22;9.40;;;4.60;;
3911;SDS011;1971;51.778;10.330;2023-11-19T13:49:52;11.20;;;4.43;;
3911;SDS011;1971;51.778;10.330;2023-11-19T13:52:23;12.77;;;5.20;;
3911;SDS011;1971;51.778;10.330;2023-11-19T13:54:55;16.30;;;5.00;;
3911;SDS011;1971;51.778;10.330;2023-11-19T13:57:26;12.60;;;4.50;;
3911;SDS011;1971;51.778;10.330;2023-11-19T14:00:01;13.40;;;4.60;;
3911;SDS011;1971;51.778;10.330;2023-11-19T14:02:38;10.03;;;4.90;;
3911;SDS011;1971;51.778;10.330;2023-11-19T14:05:09;15.23;;;5.23;;
3911;SDS011;1971;51.778;10.330;2023-11-19T14:07:40;10.27;;;4.37;;
3911;SDS011;1971;51.778;10.330;2023-11-19T14:10:13;10.37;;;4.63;;
3911;SDS011;1971;51.778;10.330;2023-11-19T14:12:43;15.20;;;4.90;;
3911;SDS011;1971;51.778;10.330;2023-11-19T14:15:14;9.20;;;3.77;;
3911;SDS011;1971;51.778;10.330;2023-11-19T14:17:44;9.77;;;4.40;;
3911;SDS011;1971;51.778;10.330;2023-11-19T14:20:14;11.70;;;4.37;;
3911;SDS011;1971;51.778;10.330;2023-11-19T14:22:45;10.80;;;4.60;;
3911;SDS011;1971;51.778;10.330;2023-11-19T14:25:20;8.33;;;3.20;;
3911;SDS011;1971;51.778;10.330;2023-11-19T14:27:50;12.10;;;3.73;;
3911;SDS011;1971;51.778;10.330;2023-11-19T14:30:21;9.30;;;3.73;;
3911;SDS011;1971;51.778;10.330;2023-11-19T14:32:51;10.57;;;4.80;;
3911;SDS011;1971;51.778;10.330;2023-11-19T14:35:21;10.10;;;4.00;;
3911;SDS011;1971;51.778;10.330;2023-11-19T14:37:52;9.27;;;3.70;;
3911;SDS011;1971;51.778;10.330;2023-11-19T14:40:25;8.27;;;3.60;;
3911;SDS011;1971;51.778;10.330;2023-11-19T14:42:58;8.77;;;4.20;;
3911;SDS011;1971;51.778;10.330;2023-11-19T14:45:29;9.47;;;4.03;;
3911;SDS011;1971;51.778;10.330;2023-11-19T14:48:11;8.00;;;4.00;;
3911;SDS011;1971;51.778;10.330;2023-11-19T14:50:41;8.00;;;3.57;;
3911;SDS011;1971;51.778;10.330;2023-11-19T14:53:11;9.43;;;3.57;;
3911;SDS011;1971;51.778;10.330;2023-11-19T14:55:44;6.43;;;2.63;;
3911;SDS011;1971;51.778;10.330;2023-11-19T14:58:15;5.33;;;2.97;;
3911;SDS011;1971;51.778;10.330;2023-11-19T15:00:45;5.70;;;3.20;;
3911;SDS011;1971;51.778;10.330;2023-11-19T15:03:16;7.67;;;4.43;;
3911;SDS011;1971;51.778;10.330;2023-11-19T15:05:46;6.40;;;2.60;;
3911;SDS011;1971;51.778;10.330;2023-11-19T15:08:17;4.57;;;2.60;;
3911;SDS011;1971;51.778;10.330;2023-11-19T15:10:50;5.80;;;3.53;;
3911;SDS011;1971;51.778;10.330;2023-11-19T15:13:21;8.97;;;3.30;;
3911;SDS011;1971;51.778;10.330;2023-11-19T15:15:51;12.87;;;4.57;;
3911;SDS011;1971;51.778;10.330;2023-11-19T15:18:22;8.70;;;3.57;;
3911;SDS011;1971;51.778;10.330;2023-11-19T15:20:53;8.50;;;3.47;;